首页
METAR-TAF:

METAR-TAF

机场 :

Türkmenbaşy, 土库曼斯坦

纬度: 40-03-48N, 经度: 053-00-26E, 海拔: 86米

当前天气观测

该预报发布于40分钟前的03:00 UTC
风速8节,风向南转南东
温度 3°C
湿度 81%
气压 1025 hPa
能见度10公里或以上
1500米以下无云,无积雨云

METAR: UTAK 280300Z 15008KT CAVOK 03/M00 Q1025 R16R/CLRD70 NOSIG

时间: 08:40 (03:40 UTC)

预报

该预报发布于1小时和50分钟前的01:50 UTC
预报有效从28日的 02点(UTC)到 28日的 24点(UTC)
风速16节,风向南转南东
能见度10公里或以上
1500米以下无云,无积雨云
短暂存在
从 28日的 02点(UTC)到 28日的 05点(UTC)
散云层高于1500英尺
短暂存在
从 28日的 05点(UTC)到 28日的 09点(UTC)
风速16节,风向南转西南
散云层高于2300英尺
散云层高于10000英尺

TAF: UTAK 280150Z 2802/2824 15016KT CAVOK TEMPO 2802/2805 SCT015 TEMPO 2805/2809 21016KT SCT023 SCT100

超过4000个机场的气象观测和天气预报(METAR&TAF报告)。

可查询的气象台以黄色和红色小点在地图上表示。

将鼠标移到小点上方,可查看气象台名称。

然后点击查看天气观测和预报。

如需切换地图:点击带黑十字的绿色按钮放大地图;点击带横线的绿色按钮缩小地图;或者点击绿色箭头查看邻近地区的地图。


METAR-TAF: